createdAt,value
2019-04-28T00:02:05.963Z,77.39
2019-04-28T00:04:35.412Z,78.95
2019-04-28T00:07:04.907Z,78.32
2019-04-28T00:09:34.346Z,78.42
2019-04-28T00:12:04.048Z,78.73
2019-04-28T00:14:33.539Z,79.16
2019-04-28T00:17:03.027Z,80.43
2019-04-28T00:19:32.481Z,80.17
2019-04-28T00:22:20.942Z,80.40
2019-04-28T00:25:01.619Z,81.31
2019-04-28T00:27:31.673Z,81.21
2019-04-28T00:30:02.080Z,80.88
2019-04-28T00:32:32.539Z,81.13
2019-04-28T00:35:02.478Z,80.25
2019-04-28T00:37:32.804Z,80.64
2019-04-28T00:40:02.250Z,81.18
2019-04-28T00:42:32.030Z,81.72
2019-04-28T00:45:01.919Z,81.81
2019-04-28T00:47:31.483Z,80.80
2019-04-28T00:50:02.114Z,79.86
2019-04-28T00:52:32.194Z,79.16
2019-04-28T00:55:01.659Z,77.59
2019-04-28T00:57:31.142Z,76.58
2019-04-28T01:00:02.465Z,77.16
2019-04-28T01:02:41.092Z,77.46
2019-04-28T01:05:11.594Z,77.21
2019-04-28T01:07:41.534Z,77.30
2019-04-28T01:10:11.837Z,79.34
2019-04-28T01:12:41.579Z,80.00
2019-04-28T01:15:13.844Z,80.16
2019-04-28T01:20:36.072Z,79.34
2019-04-28T01:23:05.576Z,79.48
2019-04-28T01:25:35.025Z,80.79
2019-04-28T01:28:04.525Z,82.22
2019-04-28T01:30:50.464Z,82.88
2019-04-28T01:33:37.772Z,82.66
2019-04-28T01:36:07.494Z,82.50
2019-04-28T01:38:37.170Z,82.12
2019-04-28T01:41:06.605Z,82.03
2019-04-28T01:43:36.312Z,82.01
2019-04-28T01:46:06.126Z,81.64
2019-04-28T01:48:35.571Z,81.41
2019-04-28T01:51:05.004Z,81.05
2019-04-28T01:53:34.847Z,80.61
2019-04-28T01:56:04.545Z,80.79
2019-04-28T01:58:33.976Z,80.96
2019-04-28T02:01:03.871Z,80.30
2019-04-28T02:03:33.305Z,79.48
2019-04-28T02:06:03.857Z,79.33
2019-04-28T02:08:33.609Z,78.53
2019-04-28T02:11:03.316Z,77.01
2019-04-28T02:13:32.775Z,77.94
2019-04-28T02:16:02.452Z,77.53
2019-04-28T02:18:32.472Z,76.43
2019-04-28T02:21:09.721Z,77.03
2019-04-28T02:23:39.667Z,76.26
2019-04-28T02:26:09.759Z,75.54
2019-04-28T02:28:40.721Z,75.50
2019-04-28T02:31:11.603Z,75.86
2019-04-28T02:33:41.099Z,76.54
2019-04-28T02:36:12.266Z,75.81
2019-04-28T02:38:41.752Z,75.79
2019-04-28T02:41:11.264Z,76.08
2019-04-28T02:43:41.014Z,75.45
2019-04-28T02:46:11.148Z,75.74
2019-04-28T02:48:40.579Z,75.33
2019-04-28T02:51:17.614Z,75.53
2019-04-28T02:53:47.052Z,75.62
2019-04-28T02:56:16.832Z,76.14
2019-04-28T02:58:46.295Z,75.72
2019-04-28T03:01:22.860Z,74.95
2019-04-28T03:03:47.140Z,75.24
2019-04-28T03:06:16.571Z,75.03
2019-04-28T03:08:46.039Z,74.65
2019-04-28T03:11:15.469Z,75.45
2019-04-28T03:13:45.199Z,74.98
2019-04-28T03:16:14.634Z,74.42
2019-04-28T03:18:44.076Z,73.33
2019-04-28T03:21:13.824Z,73.98
2019-04-28T03:23:43.270Z,73.83
2019-04-28T03:26:23.402Z,73.60
2019-04-28T03:28:57.283Z,74.44
2019-04-28T03:32:07.350Z,73.97
2019-04-28T03:34:03.942Z,72.96
2019-04-28T03:36:33.821Z,73.97
2019-04-28T03:39:04.821Z,74.52
2019-04-28T03:41:34.243Z,74.52
2019-04-28T03:44:04.543Z,76.38
2019-04-28T03:46:38.264Z,76.50
2019-04-28T03:49:10.805Z,76.46
2019-04-28T03:51:40.912Z,76.72
2019-04-28T03:54:10.716Z,76.51
2019-04-28T03:56:41.334Z,76.76
2019-04-28T03:59:11.193Z,77.19
2019-04-28T04:01:55.988Z,77.29
2019-04-28T04:04:12.367Z,77.52
2019-04-28T04:06:41.812Z,75.00
2019-04-28T04:09:11.563Z,75.16
2019-04-28T04:11:42.634Z,74.24
2019-04-28T04:14:30.997Z,73.54
2019-04-28T04:17:02.535Z,75.89
2019-04-28T04:19:33.626Z,77.15
2019-04-28T04:22:03.060Z,78.08
2019-04-28T04:24:32.760Z,78.41
2019-04-28T04:27:02.186Z,78.08
2019-04-28T04:29:31.690Z,77.99
2019-04-28T04:32:11.683Z,77.90
2019-04-28T04:34:32.822Z,77.32
2019-04-28T04:37:02.528Z,76.80
2019-04-28T04:39:31.963Z,76.41
2019-04-28T04:42:01.394Z,77.03
2019-04-28T04:44:31.144Z,77.32
2019-04-28T04:47:01.122Z,78.52
2019-04-28T04:49:31.630Z,78.17
2019-04-28T04:52:01.200Z,78.61
2019-04-28T04:54:32.791Z,78.57
2019-04-28T04:57:01.787Z,79.09
2019-04-28T04:59:32.872Z,79.13
2019-04-28T05:02:29.481Z,78.75
2019-04-28T05:04:54.518Z,78.25
2019-04-28T05:07:23.947Z,78.47
2019-04-28T05:09:53.638Z,78.54
2019-04-28T05:12:23.066Z,78.86
2019-04-28T05:14:52.511Z,79.25
2019-04-28T05:17:21.938Z,80.07
2019-04-28T05:19:51.654Z,80.12
2019-04-28T05:22:22.724Z,79.92
2019-04-28T05:24:57.110Z,76.54
2019-04-28T05:27:26.824Z,76.85
2019-04-28T05:29:57.017Z,76.39
2019-04-28T05:32:40.182Z,76.58
2019-04-28T05:35:00.113Z,75.03
2019-04-28T05:37:30.035Z,75.40
2019-04-28T05:40:00.901Z,76.08
2019-04-28T05:42:30.804Z,76.10
2019-04-28T05:45:00.259Z,74.25
2019-04-28T05:47:30.620Z,75.46
2019-04-28T05:50:10.746Z,75.26
2019-04-28T05:53:00.395Z,75.10
2019-04-28T05:55:47.076Z,74.14
2019-04-28T05:58:34.228Z,73.89
2019-04-28T06:01:06.156Z,74.05
2019-04-28T06:03:36.673Z,73.92
2019-04-28T06:06:06.355Z,73.63
2019-04-28T06:08:35.886Z,74.13
2019-04-28T06:11:23.019Z,74.13
2019-04-28T06:13:52.726Z,73.24
2019-04-28T06:16:22.419Z,71.97
2019-04-28T06:18:52.138Z,72.68
2019-04-28T06:21:21.838Z,71.69
2019-04-28T06:23:51.862Z,72.31
2019-04-28T06:26:21.559Z,72.41
2019-04-28T06:28:50.985Z,72.68
2019-04-28T06:31:20.478Z,72.58
2019-04-28T06:33:49.907Z,72.34
2019-04-28T06:36:19.685Z,72.34
2019-04-28T06:38:49.963Z,72.11
2019-04-28T06:41:19.397Z,72.39
2019-04-28T06:43:48.825Z,71.96
2019-04-28T06:46:18.257Z,72.09
2019-04-28T06:48:48.028Z,72.70
2019-04-28T06:51:17.461Z,72.06
2019-04-28T06:53:47.149Z,71.97
2019-04-28T06:56:16.585Z,72.52
2019-04-28T06:58:58.197Z,72.59
2019-04-28T07:01:17.175Z,71.89
2019-04-28T07:03:46.890Z,71.96
2019-04-28T07:06:16.558Z,70.90
2019-04-28T07:08:46.006Z,71.03
2019-04-28T07:11:15.714Z,70.32
2019-04-28T07:13:45.150Z,70.11
2019-04-28T07:16:14.582Z,68.58
2019-04-28T07:18:44.022Z,68.69
2019-04-28T07:21:31.048Z,68.14
2019-04-28T07:24:00.496Z,66.62
2019-04-28T07:26:29.925Z,66.92
2019-04-28T07:28:59.367Z,65.64
2019-04-28T07:31:29.115Z,65.24
2019-04-28T07:33:58.969Z,65.81
2019-04-28T07:36:28.675Z,66.94
2019-04-28T07:38:58.383Z,66.26
2019-04-28T07:41:27.813Z,66.26
2019-04-28T07:43:57.258Z,64.88
2019-04-28T07:46:26.699Z,63.81
2019-04-28T07:48:56.382Z,63.35
2019-04-28T07:51:27.753Z,62.92
2019-04-28T07:54:02.217Z,63.09
2019-04-28T07:56:30.242Z,63.58
2019-04-28T07:58:59.674Z,63.35
2019-04-28T08:01:29.454Z,63.80
2019-04-28T08:03:59.164Z,63.65
2019-04-28T08:06:28.864Z,63.80
2019-04-28T08:08:58.309Z,64.18
2019-04-28T08:11:27.744Z,64.15
2019-04-28T08:13:57.186Z,63.84
2019-04-28T08:16:26.618Z,63.11
2019-04-28T08:18:56.314Z,63.81
2019-04-28T08:21:25.750Z,65.05
2019-04-28T08:23:55.504Z,68.01
2019-04-28T08:26:24.936Z,67.95
2019-04-28T08:28:54.720Z,69.33
2019-04-28T08:31:25.796Z,70.09
2019-04-28T08:34:02.521Z,70.93
2019-04-28T08:36:28.555Z,71.41
2019-04-28T08:38:57.996Z,71.34
2019-04-28T08:41:27.423Z,71.45
2019-04-28T08:43:57.171Z,71.76
2019-04-28T08:46:26.597Z,72.76
2019-04-28T08:48:56.282Z,72.63
2019-04-28T08:51:25.712Z,72.29
2019-04-28T08:53:55.499Z,72.26
2019-04-28T08:56:24.935Z,71.16
2019-04-28T08:58:54.374Z,71.46
2019-04-28T09:01:24.110Z,70.64
2019-04-28T09:03:53.813Z,71.41
2019-04-28T09:06:23.527Z,71.07
2019-04-28T09:08:53.234Z,68.75
2019-04-28T09:11:22.914Z,69.11
2019-04-28T09:13:52.348Z,68.61
2019-04-28T09:16:21.781Z,68.34
2019-04-28T09:18:51.665Z,68.68
2019-04-28T09:21:21.101Z,67.75
2019-04-28T09:23:50.978Z,68.08
2019-04-28T09:26:20.686Z,67.08
2019-04-28T09:28:50.189Z,66.55
2019-04-28T09:31:19.899Z,65.42
2019-04-28T09:33:49.716Z,64.54
2019-04-28T09:36:19.146Z,63.35
2019-04-28T09:38:48.665Z,64.48
2019-04-28T09:41:18.103Z,64.92
2019-04-28T09:43:55.006Z,64.81
2019-04-28T09:46:28.770Z,64.21
2019-04-28T09:48:58.273Z,63.83
2019-04-28T09:51:27.734Z,61.17
2019-04-28T09:53:57.166Z,61.12
2019-04-28T09:56:27.333Z,61.16
2019-04-28T09:58:56.770Z,59.55
2019-04-28T10:01:26.545Z,60.25
2019-04-28T10:03:55.983Z,59.30
2019-04-28T10:06:25.498Z,59.71
2019-04-28T10:08:54.941Z,59.45
2019-04-28T10:11:30.737Z,58.06
2019-04-28T10:13:57.093Z,56.79
2019-04-28T10:16:26.580Z,57.51
2019-04-28T10:18:56.018Z,56.33
2019-04-28T10:21:25.465Z,56.71
2019-04-28T10:23:54.897Z,57.68
2019-04-28T10:26:24.663Z,58.81
2019-04-28T10:28:54.372Z,60.33
2019-04-28T10:31:24.082Z,61.92
2019-04-28T10:33:55.399Z,62.24
2019-04-28T10:36:25.449Z,64.00
2019-04-28T10:38:56.801Z,66.68
2019-04-28T10:41:33.881Z,65.95
2019-04-28T10:44:03.310Z,64.35
2019-04-28T10:46:34.380Z,66.04
2019-04-28T10:49:03.815Z,67.08
2019-04-28T10:51:33.526Z,68.77
2019-04-28T10:54:03.140Z,71.54
2019-04-28T10:56:32.572Z,72.17
2019-04-28T10:59:02.270Z,72.82
2019-04-28T11:01:31.689Z,70.57
2019-04-28T11:04:05.690Z,72.66
2019-04-28T11:06:38.400Z,72.32
2019-04-28T11:09:15.622Z,73.73
2019-04-28T11:11:45.067Z,74.17
2019-04-28T11:14:14.815Z,74.20
2019-04-28T11:16:44.562Z,74.22
2019-04-28T11:19:14.315Z,73.43
2019-04-28T11:21:43.765Z,73.04
2019-04-28T11:24:13.672Z,70.32
2019-04-28T11:26:43.120Z,66.56
2019-04-28T11:29:12.896Z,59.80
2019-04-28T11:31:42.596Z,55.15
2019-04-28T11:34:14.659Z,54.55
2019-04-28T11:36:45.012Z,57.57
2019-04-28T11:39:16.435Z,56.98
2019-04-28T11:41:45.952Z,56.96
2019-04-28T11:44:16.422Z,58.33
2019-04-28T11:46:45.942Z,57.33
2019-04-28T11:49:15.625Z,57.59
2019-04-28T11:51:45.384Z,58.13
2019-04-28T11:54:15.200Z,58.25
2019-04-28T11:56:44.906Z,57.84
2019-04-28T11:59:14.613Z,58.60
2019-04-28T12:01:44.055Z,59.09
2019-04-28T12:04:15.137Z,58.74
2019-04-28T12:06:44.584Z,59.71
2019-04-28T12:09:24.822Z,61.10
2019-04-28T12:11:55.914Z,62.66
2019-04-28T12:14:26.997Z,63.07
2019-04-28T12:17:14.586Z,64.42
2019-04-28T12:19:57.958Z,63.28
2019-04-28T12:22:27.670Z,63.26
2019-04-28T12:24:57.103Z,64.01
2019-04-28T12:27:26.883Z,62.94
2019-04-28T12:29:56.330Z,63.30
2019-04-28T12:32:26.097Z,63.32
2019-04-28T12:34:55.531Z,64.90
2019-04-28T12:37:24.981Z,64.39
2019-04-28T12:39:54.710Z,63.57
2019-04-28T12:42:24.155Z,63.26
2019-04-28T12:44:53.923Z,62.38
2019-04-28T12:47:23.635Z,63.05
2019-04-28T12:52:49.680Z,62.04
2019-04-28T12:55:19.390Z,60.37
2019-04-28T12:57:49.093Z,61.55
2019-04-28T13:00:32.363Z,60.74
2019-04-28T13:03:19.695Z,60.68
2019-04-28T13:06:02.305Z,59.70
2019-04-28T13:08:25.303Z,58.76
2019-04-28T13:10:54.736Z,57.64
2019-04-28T13:13:24.524Z,57.68
2019-04-28T13:15:53.964Z,54.91
2019-04-28T13:18:23.737Z,55.40
2019-04-28T13:20:53.449Z,55.10
2019-04-28T13:23:22.897Z,55.06
2019-04-28T13:25:52.335Z,55.67
2019-04-28T13:28:21.774Z,55.36
2019-04-28T13:30:51.212Z,55.44
2019-04-28T13:33:20.657Z,56.05
2019-04-28T13:35:50.374Z,54.38
2019-04-28T13:38:20.180Z,55.44
2019-04-28T13:40:49.863Z,55.69
2019-04-28T13:43:19.596Z,55.40
2019-04-28T13:45:49.033Z,56.27
2019-04-28T13:48:18.489Z,54.99
2019-04-28T13:50:49.108Z,55.07
2019-04-28T13:53:19.045Z,54.87
2019-04-28T13:55:48.306Z,54.80
2019-04-28T13:58:19.420Z,54.17
2019-04-28T14:00:57.630Z,53.90
2019-04-28T14:03:37.481Z,54.24
2019-04-28T14:06:08.553Z,53.08
2019-04-28T14:08:37.997Z,52.93
2019-04-28T14:11:07.693Z,51.91
2019-04-28T14:13:37.129Z,51.77
2019-04-28T14:16:06.572Z,50.47
2019-04-28T14:18:36.922Z,50.62
2019-04-28T14:21:08.020Z,50.84
2019-04-28T14:23:37.996Z,51.25
2019-04-28T14:26:07.687Z,50.87
2019-04-28T14:28:37.146Z,51.13
2019-04-28T14:31:06.843Z,51.29
2019-04-28T14:33:36.621Z,51.67
2019-04-28T14:36:06.052Z,50.92
2019-04-28T14:38:35.854Z,51.59
2019-04-28T14:41:05.570Z,52.35
2019-04-28T14:43:35.240Z,49.76
2019-04-28T14:46:04.750Z,48.78
2019-04-28T14:48:34.191Z,48.49
2019-04-28T14:51:03.710Z,48.54
2019-04-28T14:53:33.152Z,49.53
2019-04-28T14:56:02.609Z,50.75
2019-04-28T14:58:32.368Z,51.13
2019-04-28T15:01:03.461Z,50.57
2019-04-28T15:03:34.792Z,50.13
2019-04-28T15:06:06.289Z,50.01
2019-04-28T15:08:35.492Z,51.01
2019-04-28T15:11:10.647Z,50.22
2019-04-28T15:13:40.354Z,50.15
2019-04-28T15:16:09.799Z,50.28
2019-04-28T15:18:39.240Z,47.43
2019-04-28T15:21:08.770Z,46.24
2019-04-28T15:23:38.195Z,45.52
2019-04-28T15:26:07.971Z,45.51
2019-04-28T15:28:37.687Z,44.73
2019-04-28T15:31:07.496Z,44.50
2019-04-28T15:33:37.578Z,44.08
2019-04-28T15:36:07.346Z,44.92
2019-04-28T15:38:37.038Z,43.89
2019-04-28T15:41:20.626Z,42.47
2019-04-28T15:43:37.710Z,43.63
2019-04-28T15:46:07.495Z,42.52
2019-04-28T15:48:36.932Z,41.77
2019-04-28T15:51:06.516Z,41.83
2019-04-28T15:53:36.723Z,42.53
2019-04-28T15:56:14.115Z,42.44
2019-04-28T15:58:43.547Z,42.91
2019-04-28T16:01:13.241Z,43.18
2019-04-28T16:03:42.673Z,44.84
2019-04-28T16:06:12.118Z,44.95
2019-04-28T16:08:41.554Z,45.66
2019-04-28T16:11:11.003Z,46.61
2019-04-28T16:13:40.743Z,46.68
2019-04-28T16:16:10.208Z,47.23
2019-04-28T16:18:39.638Z,47.16
2019-04-28T16:21:09.330Z,47.29
2019-04-28T16:23:39.100Z,46.47
2019-04-28T16:26:08.592Z,45.70
2019-04-28T16:28:38.381Z,46.07
2019-04-28T16:31:07.822Z,46.72
2019-04-28T16:33:37.268Z,47.22
2019-04-28T16:36:06.720Z,46.93
2019-04-28T16:38:36.155Z,47.12
2019-04-28T16:41:05.853Z,47.75
2019-04-28T16:43:35.359Z,48.70
2019-04-28T16:46:05.117Z,48.28
2019-04-28T16:48:34.825Z,48.05
2019-04-28T16:51:04.533Z,49.08
2019-04-28T16:53:34.242Z,49.07
2019-04-28T16:56:12.415Z,48.84
2019-04-28T16:58:52.403Z,47.96
2019-04-28T17:01:21.908Z,48.16
2019-04-28T17:03:51.613Z,48.26
2019-04-28T17:06:21.338Z,49.03
2019-04-28T17:08:50.778Z,48.68
2019-04-28T17:11:20.467Z,48.21
2019-04-28T17:13:49.906Z,48.58
2019-04-28T17:16:19.350Z,48.53
2019-04-28T17:18:48.789Z,49.37
2019-04-28T17:21:18.493Z,48.49
2019-04-28T17:23:48.379Z,48.90
2019-04-28T17:26:18.076Z,47.95
2019-04-28T17:28:47.512Z,47.84
2019-04-28T17:31:17.290Z,48.64
2019-04-28T17:33:46.737Z,48.80
2019-04-28T17:36:16.185Z,49.25
2019-04-28T17:38:45.620Z,48.80
2019-04-28T17:41:15.409Z,47.58
2019-04-28T17:43:44.916Z,48.47
2019-04-28T17:46:14.365Z,48.75
2019-04-28T17:48:45.437Z,48.31
2019-04-28T17:51:15.122Z,49.08
2019-04-28T17:53:44.812Z,49.35
2019-04-28T17:56:14.582Z,49.90
2019-04-28T17:58:44.398Z,50.41
2019-04-28T18:01:15.745Z,49.95
2019-04-28T18:03:49.517Z,50.36
2019-04-28T18:06:26.204Z,51.10
2019-04-28T18:08:55.638Z,51.69
2019-04-28T18:11:25.328Z,51.88
2019-04-28T18:13:54.776Z,51.85
2019-04-28T18:16:44.195Z,52.62
2019-04-28T18:19:21.391Z,53.11
2019-04-28T18:21:50.844Z,52.84
2019-04-28T18:24:20.520Z,53.38
2019-04-28T18:26:49.954Z,53.42
2019-04-28T18:29:19.713Z,53.87
2019-04-28T18:31:56.491Z,54.24
2019-04-28T18:34:39.823Z,54.55
2019-04-28T18:37:11.997Z,55.10
2019-04-28T18:39:59.289Z,55.48
2019-04-28T18:42:40.480Z,55.48
2019-04-28T18:45:11.221Z,56.02
2019-04-28T18:47:40.669Z,56.38
2019-04-28T18:50:10.443Z,56.75
2019-04-28T18:52:39.894Z,57.12
2019-04-28T18:55:09.752Z,57.75
2019-04-28T18:57:39.458Z,57.96
2019-04-28T19:00:09.475Z,58.33
2019-04-28T19:02:38.937Z,58.68
2019-04-28T19:05:10.517Z,58.92
2019-04-28T19:07:41.652Z,58.71
2019-04-28T19:10:12.788Z,58.78
2019-04-28T19:13:00.138Z,59.16
2019-04-28T19:15:37.054Z,59.97
2019-04-28T19:18:08.472Z,60.36
2019-04-28T19:20:37.901Z,60.39
2019-04-28T19:23:07.676Z,59.93
2019-04-28T19:25:37.107Z,59.87
2019-04-28T19:28:06.887Z,59.70
2019-04-28T19:30:36.335Z,59.92
2019-04-28T19:33:06.005Z,60.51
2019-04-28T19:35:35.441Z,60.72
2019-04-28T19:38:04.965Z,61.11
2019-04-28T19:40:34.651Z,61.43
2019-04-28T19:43:04.456Z,61.93
2019-04-28T19:45:35.541Z,61.82
2019-04-28T19:48:05.289Z,62.72
2019-04-28T19:50:35.088Z,63.15
2019-04-28T19:53:04.774Z,62.88
2019-04-28T19:55:35.864Z,63.35
2019-04-28T19:58:09.646Z,63.24
2019-04-28T20:00:49.896Z,63.23
2019-04-28T20:03:19.396Z,63.64
2019-04-28T20:05:48.847Z,63.67
2019-04-28T20:08:18.618Z,63.76
2019-04-28T20:10:48.352Z,63.98
2019-04-28T20:13:17.781Z,63.85
2019-04-28T20:15:47.545Z,63.69
2019-04-28T20:18:16.977Z,63.76
2019-04-28T20:20:47.107Z,63.67
2019-04-28T20:23:16.873Z,63.50
2019-04-28T20:25:46.319Z,63.99
2019-04-28T20:28:16.002Z,64.15
2019-04-28T20:30:45.503Z,63.68
2019-04-28T20:33:15.192Z,63.90
2019-04-28T20:35:46.273Z,64.10
2019-04-28T20:38:17.704Z,64.29
2019-04-28T20:40:55.686Z,64.40
2019-04-28T20:43:26.691Z,64.98
2019-04-28T20:45:56.144Z,65.71
2019-04-28T20:48:25.568Z,66.11
2019-04-28T20:50:55.250Z,66.02
2019-04-28T20:53:24.949Z,66.49
2019-04-28T20:55:54.659Z,66.36
2019-04-28T20:58:24.098Z,66.42
2019-04-28T21:00:53.877Z,66.31
2019-04-28T21:03:23.544Z,66.38
2019-04-28T21:05:53.291Z,66.63
2019-04-28T21:08:22.995Z,66.07
2019-04-28T21:10:52.706Z,65.87
2019-04-28T21:13:22.517Z,65.91
2019-04-28T21:15:52.879Z,66.34
2019-04-28T21:18:22.576Z,66.58
2019-04-28T21:20:52.571Z,66.62
2019-04-28T21:23:22.065Z,66.42
2019-04-28T21:25:51.509Z,66.68
2019-04-28T21:28:20.940Z,66.65
2019-04-28T21:30:50.687Z,67.56
2019-04-28T21:33:20.123Z,68.63
2019-04-28T21:35:49.918Z,68.26
2019-04-28T21:38:19.355Z,68.13
2019-04-28T21:40:49.618Z,68.83
2019-04-28T21:43:20.980Z,68.81
2019-04-28T21:45:52.988Z,70.11
2019-04-28T21:48:38.807Z,70.53
2019-04-28T21:51:11.468Z,70.30
2019-04-28T21:53:39.477Z,69.86
2019-04-28T21:56:09.165Z,69.86
2019-04-28T21:58:38.891Z,69.59
2019-04-28T22:01:11.254Z,70.37
2019-04-28T22:03:40.756Z,70.76
2019-04-28T22:06:10.471Z,70.92
2019-04-28T22:08:39.904Z,71.44
2019-04-28T22:11:09.349Z,71.44
2019-04-28T22:13:38.857Z,71.73
2019-04-28T22:16:08.901Z,71.46
2019-04-28T22:18:38.331Z,71.53
2019-04-28T22:21:07.775Z,71.63
2019-04-28T22:23:39.184Z,72.12
2019-04-28T22:26:09.504Z,72.01
2019-04-28T22:28:38.925Z,71.60
2019-04-28T22:31:08.610Z,72.38
2019-04-28T22:33:38.403Z,73.09
2019-04-28T22:36:08.079Z,72.82
2019-04-28T22:38:37.760Z,72.80
2019-04-28T22:41:07.636Z,73.51
2019-04-28T22:43:37.337Z,73.37
2019-04-28T22:46:06.774Z,73.51
2019-04-28T22:48:36.239Z,73.80
2019-04-28T22:51:06.059Z,73.73
2019-04-28T22:53:37.413Z,73.64
2019-04-28T22:56:21.661Z,73.43
2019-04-28T22:58:52.812Z,73.26
2019-04-28T23:01:24.422Z,73.83
2019-04-28T23:04:11.884Z,74.52
2019-04-28T23:06:41.688Z,75.00
2019-04-28T23:09:13.206Z,75.44
2019-04-28T23:11:42.632Z,76.06
2019-04-28T23:14:12.080Z,76.80
2019-04-28T23:16:41.576Z,76.61
2019-04-28T23:19:12.663Z,76.24
2019-04-28T23:21:42.190Z,76.06
2019-04-28T23:24:11.901Z,76.04
2019-04-28T23:26:41.341Z,76.30
2019-04-28T23:29:10.779Z,76.19
2019-04-28T23:31:40.210Z,76.11
2019-04-28T23:34:09.653Z,75.96
2019-04-28T23:36:39.088Z,75.41
2019-04-28T23:39:09.749Z,75.55
2019-04-28T23:41:40.821Z,75.51
2019-04-28T23:44:10.268Z,75.07
2019-04-28T23:46:56.412Z,74.91
2019-04-28T23:49:30.195Z,75.44
2019-04-28T23:52:03.053Z,75.92
2019-04-28T23:54:34.130Z,75.61
2019-04-28T23:57:03.560Z,75.80
2019-04-28T23:59:33.065Z,76.01
